createdAt,value
2022-10-05T00:00:56.836Z,5.80
2022-10-05T00:03:37.786Z,8.80
2022-10-05T00:06:05.777Z,8.80
2022-10-05T00:08:35.290Z,8.70
2022-10-05T00:11:09.093Z,8.70
2022-10-05T00:13:37.209Z,8.60
2022-10-05T00:16:10.911Z,8.60
2022-10-05T00:18:40.031Z,8.60
2022-10-05T00:21:24.690Z,8.60
2022-10-05T00:23:56.244Z,8.70
2022-10-05T00:26:27.315Z,8.60
2022-10-05T00:28:55.356Z,8.60
2022-10-05T00:31:30.163Z,8.60
2022-10-05T00:33:58.260Z,8.60
2022-10-05T00:36:26.335Z,8.60
2022-10-05T00:38:54.467Z,8.60
2022-10-05T00:41:24.163Z,8.60
2022-10-05T00:43:57.640Z,8.60
2022-10-05T00:46:54.943Z,8.70
2022-10-05T00:49:22.612Z,8.70
2022-10-05T00:52:23.752Z,8.60
2022-10-05T00:55:18.386Z,8.50
2022-10-05T00:58:27.867Z,8.40
2022-10-05T01:01:16.679Z,8.40
2022-10-05T01:03:52.992Z,8.40
2022-10-05T01:07:04.762Z,8.50
2022-10-05T01:09:52.861Z,8.50
2022-10-05T01:12:47.487Z,8.40
2022-10-05T01:16:04.291Z,8.40
2022-10-05T01:18:49.291Z,8.30
2022-10-05T01:21:23.683Z,8.20
2022-10-05T01:24:31.902Z,8.30
2022-10-05T01:27:16.029Z,8.30
2022-10-05T01:30:13.542Z,8.30
2022-10-05T01:32:48.392Z,8.30
2022-10-05T01:35:31.115Z,8.30
2022-10-05T01:38:07.822Z,8.20
2022-10-05T01:41:13.266Z,8.10
2022-10-05T01:44:12.040Z,8.10
2022-10-05T01:46:50.488Z,8.10
2022-10-05T01:49:32.321Z,8.10
2022-10-05T01:52:24.565Z,8.10
2022-10-05T01:55:20.694Z,8.20
2022-10-05T01:58:13.739Z,8.40
2022-10-05T02:01:04.446Z,8.50
2022-10-05T02:03:56.848Z,8.30
2022-10-05T02:06:30.093Z,8.20
2022-10-05T02:09:30.338Z,8.30
2022-10-05T02:12:05.418Z,8.40
2022-10-05T02:14:43.365Z,8.50
2022-10-05T02:17:18.226Z,8.50
2022-10-05T02:19:51.493Z,8.60
2022-10-05T02:22:36.973Z,8.70
2022-10-05T02:25:17.548Z,8.60
2022-10-05T02:28:27.084Z,8.60
2022-10-05T02:31:09.836Z,8.50
2022-10-05T02:33:38.094Z,8.40
2022-10-05T02:36:18.364Z,8.40
2022-10-05T02:39:52.464Z,8.30
2022-10-05T02:43:00.086Z,8.20
2022-10-05T02:45:48.086Z,8.10
2022-10-05T02:48:56.235Z,8.00
2022-10-05T02:51:32.538Z,7.90
2022-10-05T02:54:35.066Z,7.90
2022-10-05T02:58:09.800Z,7.80
2022-10-05T03:00:50.116Z,7.80
2022-10-05T03:03:58.373Z,7.70
2022-10-05T03:06:37.724Z,7.80
2022-10-05T03:09:07.986Z,7.80
2022-10-05T03:12:05.126Z,7.80
2022-10-05T03:15:50.788Z,7.80
2022-10-05T03:18:57.169Z,7.60
2022-10-05T03:21:55.154Z,7.60
2022-10-05T03:25:13.546Z,7.50
2022-10-05T03:27:54.452Z,7.60
2022-10-05T03:30:25.784Z,7.60
2022-10-05T03:33:06.623Z,7.70
2022-10-05T03:36:22.092Z,7.70
2022-10-05T03:39:11.176Z,7.60
2022-10-05T03:42:17.337Z,7.50
2022-10-05T03:45:05.805Z,7.40
2022-10-05T03:47:40.509Z,7.50
2022-10-05T03:51:04.191Z,7.50
2022-10-05T03:53:42.995Z,7.50
2022-10-05T03:56:27.637Z,7.40
2022-10-05T03:59:35.235Z,7.40
2022-10-05T04:02:13.226Z,7.40
2022-10-05T04:05:10.256Z,7.30
2022-10-05T04:07:51.194Z,7.40
2022-10-05T04:10:41.793Z,7.30
2022-10-05T04:13:22.355Z,7.30
2022-10-05T04:16:21.509Z,7.30
2022-10-05T04:19:22.151Z,7.40
2022-10-05T04:22:12.570Z,7.50
2022-10-05T04:25:00.826Z,7.60
2022-10-05T04:27:45.477Z,7.60
2022-10-05T04:30:18.026Z,7.70
2022-10-05T04:32:57.721Z,7.70
2022-10-05T04:36:11.647Z,7.70
2022-10-05T04:39:28.409Z,7.70
2022-10-05T04:42:28.291Z,7.70
2022-10-05T04:45:38.030Z,7.70
2022-10-05T04:49:10.875Z,7.80
2022-10-05T04:51:51.019Z,7.80
2022-10-05T04:54:34.074Z,7.80
2022-10-05T04:57:33.113Z,7.90
2022-10-05T05:00:23.930Z,7.80
2022-10-05T05:03:24.271Z,7.90
2022-10-05T05:06:21.815Z,7.90
2022-10-05T05:09:16.945Z,7.90
2022-10-05T05:11:57.027Z,7.90
2022-10-05T05:14:52.745Z,7.90
2022-10-05T05:17:32.624Z,7.90
2022-10-05T05:20:23.421Z,7.90
2022-10-05T05:23:40.916Z,7.90
2022-10-05T05:26:58.673Z,7.90
2022-10-05T05:29:40.133Z,7.80
2022-10-05T05:32:51.030Z,7.90
2022-10-05T05:35:34.911Z,8.40
2022-10-05T05:38:23.945Z,7.90
2022-10-05T05:41:29.309Z,7.90
2022-10-05T05:44:05.997Z,7.90
2022-10-05T05:50:20.269Z,7.80
2022-10-05T05:53:01.534Z,7.80
2022-10-05T05:55:42.656Z,7.70
2022-10-05T05:58:25.778Z,7.80
2022-10-05T06:01:33.669Z,7.70
2022-10-05T06:04:21.558Z,7.70
2022-10-05T06:06:53.418Z,7.70
2022-10-05T06:09:38.314Z,7.70
2022-10-05T06:12:30.238Z,7.70
2022-10-05T06:15:23.690Z,7.70
2022-10-05T06:17:56.592Z,7.80
2022-10-05T06:20:40.705Z,7.80
2022-10-05T06:23:33.193Z,7.90
2022-10-05T06:26:26.194Z,7.90
2022-10-05T06:29:05.853Z,7.90
2022-10-05T06:31:49.977Z,8.00
2022-10-05T06:34:42.827Z,8.00
2022-10-05T06:37:29.012Z,8.10
2022-10-05T06:40:18.647Z,8.20
2022-10-05T06:42:49.311Z,8.30
2022-10-05T06:45:35.279Z,8.30
2022-10-05T06:48:49.353Z,8.30
2022-10-05T06:51:43.585Z,8.40
2022-10-05T06:55:11.866Z,8.30
2022-10-05T06:58:13.290Z,8.40
2022-10-05T07:00:54.600Z,8.50
2022-10-05T07:03:34.128Z,8.50
2022-10-05T07:06:11.982Z,8.50
2022-10-05T07:09:12.087Z,8.50
2022-10-05T07:12:04.442Z,8.60
2022-10-05T07:15:03.179Z,8.70
2022-10-05T07:17:45.595Z,8.70
2022-10-05T07:21:08.350Z,8.70
2022-10-05T07:23:44.580Z,8.80
2022-10-05T07:26:32.489Z,8.90
2022-10-05T07:29:34.078Z,8.80
2022-10-05T07:32:05.160Z,9.00
2022-10-05T07:34:55.856Z,9.00
2022-10-05T07:37:57.427Z,9.00
2022-10-05T07:40:49.123Z,9.10
2022-10-05T07:44:07.746Z,9.20
2022-10-05T07:46:56.856Z,9.20
2022-10-05T07:49:36.949Z,9.40
2022-10-05T07:52:24.930Z,9.40
2022-10-05T07:55:26.367Z,9.40
2022-10-05T07:58:18.805Z,9.50
2022-10-05T08:01:11.189Z,9.60
2022-10-05T08:04:12.503Z,9.70
2022-10-05T08:06:43.584Z,9.80
2022-10-05T08:09:23.260Z,9.90
2022-10-05T08:12:31.877Z,9.90
2022-10-05T08:15:21.985Z,10.00
2022-10-05T08:17:55.986Z,10.20
2022-10-05T08:20:34.886Z,10.30
2022-10-05T08:23:34.137Z,10.50
2022-10-05T08:26:29.213Z,10.50
2022-10-05T08:29:56.167Z,10.50
2022-10-05T08:32:30.832Z,10.50
2022-10-05T08:35:23.313Z,10.60
2022-10-05T08:37:52.650Z,10.70
2022-10-05T08:40:33.633Z,10.80
2022-10-05T08:43:17.454Z,10.90
2022-10-05T08:45:54.296Z,11.10
2022-10-05T08:49:02.379Z,11.40
2022-10-05T08:52:12.227Z,11.70
2022-10-05T08:55:35.086Z,11.90
2022-10-05T08:58:33.334Z,12.10
2022-10-05T09:01:04.146Z,12.20
2022-10-05T09:03:57.071Z,12.50
2022-10-05T09:06:51.349Z,12.60
2022-10-05T09:09:51.149Z,12.80
2022-10-05T09:12:27.913Z,13.10
2022-10-05T09:15:26.312Z,13.30
2022-10-05T09:18:09.627Z,13.30
2022-10-05T09:20:37.390Z,13.40
2022-10-05T09:23:43.015Z,13.40
2022-10-05T09:26:51.676Z,13.50
2022-10-05T09:29:43.769Z,13.60
2022-10-05T09:32:45.948Z,13.60
2022-10-05T09:35:38.519Z,13.80
2022-10-05T09:38:38.692Z,14.10
2022-10-05T09:41:48.263Z,14.30
2022-10-05T09:44:47.254Z,14.40
2022-10-05T09:47:38.222Z,14.80
2022-10-05T09:50:37.986Z,15.10
2022-10-05T09:53:27.297Z,14.90
2022-10-05T09:56:13.250Z,15.00
2022-10-05T09:59:11.887Z,14.60
2022-10-05T10:01:57.851Z,15.40
2022-10-05T10:04:53.640Z,15.70
2022-10-05T10:07:58.535Z,16.10
2022-10-05T10:10:53.568Z,16.40
2022-10-05T10:13:30.469Z,16.70
2022-10-05T10:16:37.995Z,17.10
2022-10-05T10:19:35.870Z,17.30
2022-10-05T10:22:19.913Z,17.20
2022-10-05T10:25:19.638Z,17.60
2022-10-05T10:28:02.719Z,17.80
2022-10-05T10:31:18.050Z,17.90
2022-10-05T10:34:41.490Z,18.20
2022-10-05T10:37:39.547Z,18.20
2022-10-05T10:40:23.391Z,18.60
2022-10-05T10:43:28.476Z,19.00
2022-10-05T10:46:33.842Z,19.10
2022-10-05T10:49:36.891Z,19.20
2022-10-05T10:52:53.879Z,19.10
2022-10-05T10:55:30.946Z,19.30
2022-10-05T10:58:56.269Z,19.60
2022-10-05T11:01:34.624Z,19.50
2022-10-05T11:04:36.568Z,20.10
2022-10-05T11:07:23.142Z,20.40
2022-10-05T11:10:31.341Z,20.40
2022-10-05T11:13:07.983Z,20.60
2022-10-05T11:15:56.932Z,20.40
2022-10-05T11:18:24.767Z,20.30
2022-10-05T11:21:16.657Z,20.40
2022-10-05T11:24:19.652Z,20.40
2022-10-05T11:27:44.204Z,20.50
2022-10-05T11:30:23.054Z,20.60
2022-10-05T11:33:28.305Z,20.90
2022-10-05T11:36:34.264Z,21.10
2022-10-05T11:39:42.511Z,21.30
2022-10-05T11:42:50.593Z,21.60
2022-10-05T11:45:26.121Z,21.70
2022-10-05T11:48:24.579Z,21.60
2022-10-05T11:51:28.466Z,21.80
2022-10-05T11:54:09.486Z,21.60
2022-10-05T11:56:42.026Z,21.90
2022-10-05T11:59:16.211Z,22.10
2022-10-05T12:02:00.153Z,22.20
2022-10-05T12:05:11.382Z,22.30
2022-10-05T12:08:28.933Z,22.50
2022-10-05T12:11:22.861Z,22.40
2022-10-05T12:14:03.725Z,22.40
2022-10-05T12:17:16.970Z,22.50
2022-10-05T12:19:56.601Z,22.60
2022-10-05T12:22:51.533Z,23.00
2022-10-05T12:25:33.506Z,22.80
2022-10-05T12:28:12.434Z,22.90
2022-10-05T12:31:14.628Z,22.80
2022-10-05T12:34:05.402Z,23.20
2022-10-05T12:37:08.263Z,23.30
2022-10-05T12:40:05.419Z,23.40
2022-10-05T12:42:59.983Z,23.40
2022-10-05T12:45:40.166Z,23.50
2022-10-05T12:48:58.147Z,23.80
2022-10-05T12:51:57.995Z,24.00
2022-10-05T12:54:41.563Z,23.90
2022-10-05T12:57:35.093Z,24.10
2022-10-05T13:00:17.738Z,23.90
2022-10-05T13:02:51.344Z,24.00
2022-10-05T13:05:38.016Z,24.10
2022-10-05T13:08:43.383Z,24.10
2022-10-05T13:11:33.507Z,24.30
2022-10-05T13:14:13.486Z,24.20
2022-10-05T13:17:23.733Z,24.20
2022-10-05T13:20:07.766Z,24.10
2022-10-05T13:22:49.253Z,23.90
2022-10-05T13:25:31.407Z,23.70
2022-10-05T13:28:02.156Z,23.70
2022-10-05T13:30:31.180Z,23.90
2022-10-05T13:33:25.694Z,24.00
2022-10-05T13:36:05.542Z,24.10
2022-10-05T13:39:11.611Z,24.00
2022-10-05T13:41:51.938Z,24.30
2022-10-05T13:44:58.822Z,24.30
2022-10-05T13:48:00.921Z,24.00
2022-10-05T13:50:45.866Z,24.20
2022-10-05T13:53:28.150Z,24.20
2022-10-05T13:56:00.418Z,24.10
2022-10-05T13:59:05.261Z,24.10
2022-10-05T14:01:53.650Z,24.10
2022-10-05T14:04:27.515Z,24.30
2022-10-05T14:06:57.453Z,24.50
2022-10-05T14:09:30.632Z,24.30
2022-10-05T14:12:04.435Z,24.40
2022-10-05T14:14:43.953Z,24.40
2022-10-05T14:17:37.441Z,24.30
2022-10-05T14:20:34.311Z,24.20
2022-10-05T14:23:24.701Z,24.20
2022-10-05T14:25:54.230Z,24.10
2022-10-05T14:28:31.463Z,24.00
2022-10-05T14:31:16.559Z,23.90
2022-10-05T14:33:45.011Z,24.00
2022-10-05T14:36:16.785Z,24.00
2022-10-05T14:38:55.223Z,23.60
2022-10-05T14:41:27.570Z,23.60
2022-10-05T14:44:13.690Z,23.90
2022-10-05T14:47:04.725Z,23.90
2022-10-05T14:49:37.077Z,23.80
2022-10-05T14:52:34.814Z,23.90
2022-10-05T14:55:43.787Z,23.70
2022-10-05T14:58:44.425Z,23.70
2022-10-05T15:01:52.528Z,23.40
2022-10-05T15:04:43.218Z,23.40
2022-10-05T15:07:31.109Z,23.20
2022-10-05T15:10:51.333Z,23.30
2022-10-05T15:13:24.276Z,23.30
2022-10-05T15:16:25.440Z,23.30
2022-10-05T15:19:16.749Z,23.30
2022-10-05T15:22:26.309Z,23.40
2022-10-05T15:25:16.138Z,23.20
2022-10-05T15:27:56.518Z,23.20
2022-10-05T15:30:24.630Z,23.30
2022-10-05T15:33:27.769Z,23.20
2022-10-05T15:36:04.686Z,23.10
2022-10-05T15:39:16.457Z,22.90
2022-10-05T15:42:08.127Z,23.80
2022-10-05T15:45:11.626Z,22.80
2022-10-05T15:48:03.724Z,22.80
2022-10-05T15:51:07.136Z,22.80
2022-10-05T15:53:55.357Z,22.70
2022-10-05T15:56:41.070Z,22.60
2022-10-05T15:59:46.126Z,22.70
2022-10-05T16:02:29.163Z,22.60
2022-10-05T16:05:20.065Z,22.50
2022-10-05T16:08:12.412Z,22.30
2022-10-05T16:10:47.510Z,22.20
2022-10-05T16:13:46.831Z,22.20
2022-10-05T16:16:47.717Z,21.80
2022-10-05T16:19:35.768Z,21.80
2022-10-05T16:22:25.182Z,21.60
2022-10-05T16:25:05.074Z,21.70
2022-10-05T16:27:47.983Z,21.50
2022-10-05T16:30:22.635Z,21.40
2022-10-05T16:33:02.508Z,21.70
2022-10-05T16:35:53.647Z,21.60
2022-10-05T16:39:06.731Z,21.70
2022-10-05T16:42:06.428Z,21.60
2022-10-05T16:44:55.580Z,21.60
2022-10-05T16:48:13.342Z,21.60
2022-10-05T16:50:59.011Z,21.40
2022-10-05T16:53:44.511Z,21.40
2022-10-05T16:56:18.425Z,21.10
2022-10-05T16:59:11.460Z,20.90
2022-10-05T17:02:31.625Z,20.80
2022-10-05T17:05:39.982Z,20.70
2022-10-05T17:08:45.710Z,20.10
2022-10-05T17:11:35.423Z,19.60
2022-10-05T17:14:11.520Z,19.70
2022-10-05T17:17:17.970Z,18.70
2022-10-05T17:20:10.096Z,19.10
2022-10-05T17:22:51.595Z,18.80
2022-10-05T17:25:57.360Z,18.40
2022-10-05T17:29:16.677Z,18.20
2022-10-05T17:32:30.664Z,18.30
2022-10-05T17:35:01.767Z,18.10
2022-10-05T17:38:17.239Z,18.10
2022-10-05T17:41:12.025Z,18.00
2022-10-05T17:44:20.535Z,17.80
2022-10-05T17:46:53.239Z,17.60
2022-10-05T17:50:08.609Z,17.50
2022-10-05T17:53:00.013Z,17.40
2022-10-05T17:55:45.307Z,17.30
2022-10-05T17:58:29.493Z,17.20
2022-10-05T18:00:58.555Z,17.20
2022-10-05T18:03:52.864Z,17.20
2022-10-05T18:06:37.987Z,17.30
2022-10-05T18:09:20.593Z,17.20
2022-10-05T18:12:17.047Z,17.20
2022-10-05T18:15:07.036Z,17.10
2022-10-05T18:18:00.909Z,17.00
2022-10-05T18:20:32.605Z,16.90
2022-10-05T18:23:03.619Z,16.90
2022-10-05T18:26:08.194Z,16.80
2022-10-05T18:29:14.063Z,17.00
2022-10-05T18:32:01.159Z,16.90
2022-10-05T18:34:41.816Z,17.00
2022-10-05T18:37:56.176Z,17.00
2022-10-05T18:40:34.566Z,17.10
2022-10-05T18:43:40.803Z,17.10
2022-10-05T18:46:46.563Z,17.20
2022-10-05T18:50:00.572Z,17.00
2022-10-05T18:53:00.740Z,17.00
2022-10-05T18:55:58.887Z,16.90
2022-10-05T18:59:37.020Z,16.90
2022-10-05T19:02:18.279Z,17.00
2022-10-05T19:05:46.518Z,16.90
2022-10-05T19:08:32.998Z,16.90
2022-10-05T19:11:12.417Z,16.80
2022-10-05T19:14:32.147Z,16.90
2022-10-05T19:17:14.961Z,16.70
2022-10-05T19:20:05.955Z,16.80
2022-10-05T19:22:54.197Z,16.70
2022-10-05T19:26:03.438Z,16.70
2022-10-05T19:29:08.500Z,16.60
2022-10-05T19:31:38.943Z,16.60
2022-10-05T19:34:56.230Z,16.80
2022-10-05T19:37:51.815Z,16.70
2022-10-05T19:41:27.949Z,16.70
2022-10-05T19:44:56.830Z,16.50
2022-10-05T19:48:15.337Z,16.50
2022-10-05T19:50:58.592Z,16.40
2022-10-05T19:53:49.909Z,16.30
2022-10-05T19:56:21.710Z,16.10
2022-10-05T19:58:52.003Z,15.90
2022-10-05T20:01:27.552Z,16.00
2022-10-05T20:03:55.510Z,16.00
2022-10-05T20:06:23.614Z,16.10
2022-10-05T20:08:53.763Z,16.20
2022-10-05T20:11:27.391Z,16.10
2022-10-05T20:13:55.312Z,16.00
2022-10-05T20:19:47.105Z,15.90
2022-10-05T20:22:38.076Z,16.00
2022-10-05T20:25:19.384Z,16.10
2022-10-05T20:27:58.067Z,16.10
2022-10-05T20:30:29.057Z,15.90
2022-10-05T20:32:59.617Z,15.90
2022-10-05T20:35:30.625Z,15.90
2022-10-05T20:38:02.021Z,16.00
2022-10-05T20:40:30.653Z,16.10
2022-10-05T20:42:59.038Z,16.20
2022-10-05T20:45:26.965Z,16.10
2022-10-05T20:47:55.029Z,16.00
2022-10-05T20:50:22.857Z,15.80
2022-10-05T20:52:50.793Z,15.90
2022-10-05T20:55:18.570Z,16.00
2022-10-05T20:57:47.385Z,16.00
2022-10-05T21:00:15.339Z,16.00
2022-10-05T21:02:43.178Z,16.20
2022-10-05T21:05:10.984Z,16.20
2022-10-05T21:07:38.906Z,16.30
2022-10-05T21:10:07.194Z,16.20
2022-10-05T21:12:34.959Z,16.30
2022-10-05T21:15:06.207Z,16.40
2022-10-05T21:17:34.693Z,16.40
2022-10-05T21:20:02.530Z,16.40
2022-10-05T21:22:30.357Z,16.30
2022-10-05T21:24:58.474Z,16.40
2022-10-05T21:27:26.286Z,16.30
2022-10-05T21:29:54.169Z,16.00
2022-10-05T21:32:21.932Z,15.90
2022-10-05T21:34:50.139Z,15.90
2022-10-05T21:37:19.841Z,15.90
2022-10-05T21:39:47.578Z,15.90
2022-10-05T21:42:15.399Z,16.50
2022-10-05T21:44:43.178Z,17.00
2022-10-05T21:47:11.006Z,17.00
2022-10-05T21:49:38.822Z,17.00
2022-10-05T21:52:06.651Z,17.10
2022-10-05T21:54:35.117Z,17.10
2022-10-05T21:57:03.361Z,17.20
2022-10-05T21:59:33.327Z,17.20
2022-10-05T22:02:02.389Z,17.00
2022-10-05T22:04:30.117Z,17.00
2022-10-05T22:06:58.084Z,16.70
2022-10-05T22:09:25.941Z,16.70
2022-10-05T22:11:54.897Z,16.80
2022-10-05T22:14:22.776Z,16.70
2022-10-05T22:16:50.601Z,16.70
2022-10-05T22:19:20.112Z,16.60
2022-10-05T22:21:47.874Z,16.60
2022-10-05T22:24:15.676Z,16.50
2022-10-05T22:26:47.376Z,16.50
2022-10-05T22:29:17.002Z,16.50
2022-10-05T22:31:48.662Z,16.50
2022-10-05T22:34:18.430Z,16.40
2022-10-05T22:36:47.555Z,16.30
2022-10-05T22:39:17.070Z,16.10
2022-10-05T22:41:45.122Z,15.80
2022-10-05T22:44:12.936Z,15.60
2022-10-05T22:46:40.860Z,15.60
2022-10-05T22:49:09.307Z,15.70
2022-10-05T22:51:37.092Z,15.70
2022-10-05T22:54:05.305Z,15.60
2022-10-05T22:56:33.394Z,15.60
2022-10-05T22:59:01.376Z,15.60
2022-10-05T23:01:29.231Z,15.60
2022-10-05T23:03:57.381Z,15.80
2022-10-05T23:06:28.253Z,15.70
2022-10-05T23:08:56.680Z,15.70
2022-10-05T23:11:30.202Z,15.70
2022-10-05T23:13:58.758Z,15.60
2022-10-05T23:16:28.816Z,15.60
2022-10-05T23:18:56.897Z,15.60
2022-10-05T23:21:28.874Z,15.60
2022-10-05T23:23:56.718Z,15.60
2022-10-05T23:26:26.520Z,15.40
2022-10-05T23:28:54.389Z,15.20
2022-10-05T23:31:29.301Z,15.10
2022-10-05T23:33:57.188Z,14.90
2022-10-05T23:36:28.410Z,14.90
2022-10-05T23:38:56.159Z,14.80
2022-10-05T23:41:24.965Z,14.80
2022-10-05T23:43:55.209Z,14.70
2022-10-05T23:46:23.319Z,14.60
2022-10-05T23:48:53.144Z,14.60
2022-10-05T23:51:20.967Z,14.60
2022-10-05T23:53:48.682Z,14.50
2022-10-05T23:56:16.496Z,14.40
2022-10-05T23:58:45.022Z,14.30
